createdAt,value
2022-11-26T00:00:18.508Z,6.10
2022-11-26T00:04:40.166Z,6.10
2022-11-26T00:09:05.111Z,6.10
2022-11-26T00:13:30.637Z,6.10
2022-11-26T00:17:53.722Z,6.10
2022-11-26T00:22:29.001Z,6.10
2022-11-26T00:26:50.679Z,6.10
2022-11-26T00:31:17.151Z,6.00
2022-11-26T00:35:39.063Z,6.00
2022-11-26T00:40:01.917Z,6.00
2022-11-26T00:44:25.748Z,6.00
2022-11-26T00:48:48.185Z,6.00
2022-11-26T00:53:14.911Z,6.00
2022-11-26T00:57:36.992Z,5.90
2022-11-26T01:01:58.779Z,5.90
2022-11-26T01:06:32.728Z,5.90
2022-11-26T01:10:55.713Z,5.90
2022-11-26T01:15:21.668Z,6.00
2022-11-26T01:19:43.611Z,6.00
2022-11-26T01:24:06.308Z,6.00
2022-11-26T01:28:28.100Z,6.00
2022-11-26T01:32:50.362Z,6.00
2022-11-26T01:37:14.158Z,5.90
2022-11-26T01:41:54.364Z,5.90
2022-11-26T01:46:22.601Z,5.90
2022-11-26T01:51:07.226Z,5.90
2022-11-26T01:55:38.765Z,5.90
2022-11-26T02:00:02.136Z,5.90
2022-11-26T02:04:39.524Z,5.90
2022-11-26T02:09:06.436Z,5.80
2022-11-26T02:13:28.394Z,5.70
2022-11-26T02:18:05.457Z,5.70
2022-11-26T02:22:44.625Z,5.80
2022-11-26T02:27:25.816Z,5.80
2022-11-26T02:32:20.134Z,5.90
2022-11-26T02:36:57.518Z,5.90
2022-11-26T02:41:19.726Z,5.90
2022-11-26T02:45:46.533Z,5.90
2022-11-26T02:50:20.358Z,5.90
2022-11-26T02:54:47.260Z,5.90
2022-11-26T02:59:09.170Z,5.90
2022-11-26T03:03:39.518Z,5.90
2022-11-26T03:08:03.237Z,5.90
2022-11-26T03:12:27.067Z,5.90
2022-11-26T03:16:48.704Z,6.00
2022-11-26T03:21:12.087Z,6.10
2022-11-26T03:25:34.932Z,6.20
2022-11-26T03:29:57.287Z,6.20
2022-11-26T03:34:19.104Z,6.20
2022-11-26T03:38:40.903Z,6.20
2022-11-26T03:43:02.862Z,6.20
2022-11-26T03:47:24.984Z,6.10
2022-11-26T03:51:46.950Z,6.10
2022-11-26T03:56:08.823Z,6.10
2022-11-26T04:00:30.686Z,6.10
2022-11-26T04:04:52.655Z,6.10
2022-11-26T04:09:14.664Z,6.10
2022-11-26T04:13:36.596Z,6.20
2022-11-26T04:17:58.479Z,6.20
2022-11-26T04:22:20.429Z,6.20
2022-11-26T04:26:42.403Z,6.10
2022-11-26T04:31:04.164Z,6.10
2022-11-26T04:35:26.056Z,6.10
2022-11-26T04:39:48.060Z,6.10
2022-11-26T04:44:09.894Z,6.10
2022-11-26T04:48:31.789Z,6.00
2022-11-26T04:52:53.832Z,6.00
2022-11-26T04:57:15.612Z,6.10
2022-11-26T05:01:37.778Z,6.10
2022-11-26T05:05:59.788Z,6.20
2022-11-26T05:10:21.711Z,6.20
2022-11-26T05:14:44.107Z,6.30
2022-11-26T05:19:07.392Z,6.20
2022-11-26T05:23:29.149Z,6.20
2022-11-26T05:27:51.012Z,6.20
2022-11-26T05:32:13.588Z,6.30
2022-11-26T05:36:35.465Z,6.20
2022-11-26T05:40:57.247Z,6.30
2022-11-26T05:45:19.296Z,6.20
2022-11-26T05:49:41.338Z,6.30
2022-11-26T05:54:03.388Z,6.30
2022-11-26T05:58:25.794Z,6.30
2022-11-26T06:02:47.999Z,6.40
2022-11-26T06:07:10.332Z,6.40
2022-11-26T06:11:32.178Z,6.40
2022-11-26T06:15:54.249Z,6.40
2022-11-26T06:20:16.106Z,6.40
2022-11-26T06:24:38.160Z,6.40
2022-11-26T06:29:00.118Z,6.30
2022-11-26T06:33:22.224Z,6.30
2022-11-26T06:37:44.474Z,6.20
2022-11-26T06:42:06.307Z,6.10
2022-11-26T06:46:28.652Z,6.00
2022-11-26T06:50:50.735Z,6.10
2022-11-26T06:55:15.828Z,6.10
2022-11-26T06:59:37.821Z,6.20
2022-11-26T07:04:00.689Z,6.20
2022-11-26T07:08:22.715Z,6.30
2022-11-26T07:12:44.375Z,6.30
2022-11-26T07:17:08.088Z,6.30
2022-11-26T07:21:30.411Z,6.40
2022-11-26T07:25:52.182Z,6.50
2022-11-26T07:30:14.920Z,6.50
2022-11-26T07:34:37.415Z,6.50
2022-11-26T07:39:02.379Z,6.50
2022-11-26T07:43:24.212Z,6.50
2022-11-26T07:47:46.177Z,6.40
2022-11-26T07:52:08.086Z,6.50
2022-11-26T07:56:29.916Z,6.60
2022-11-26T08:00:54.632Z,6.70
2022-11-26T08:05:16.872Z,6.90
2022-11-26T08:09:39.191Z,7.50
2022-11-26T08:14:11.088Z,9.80
2022-11-26T08:18:33.391Z,11.60
2022-11-26T08:22:55.307Z,12.30
2022-11-26T08:27:17.922Z,11.90
2022-11-26T08:31:45.759Z,12.60
2022-11-26T08:36:09.662Z,13.10
2022-11-26T08:40:32.712Z,12.40
2022-11-26T08:44:55.334Z,11.30
2022-11-26T08:49:18.639Z,10.40
2022-11-26T08:53:40.750Z,9.70
2022-11-26T08:58:03.006Z,9.60
2022-11-26T09:02:24.687Z,10.00
2022-11-26T09:06:46.692Z,10.20
2022-11-26T09:11:08.582Z,10.00
2022-11-26T09:15:30.844Z,9.60
2022-11-26T09:19:52.467Z,9.30
2022-11-26T09:24:16.469Z,9.00
2022-11-26T09:28:39.629Z,9.00
2022-11-26T09:33:01.670Z,9.00
2022-11-26T09:37:23.667Z,9.10
2022-11-26T09:42:32.934Z,9.40
2022-11-26T09:47:26.321Z,9.80
2022-11-26T09:51:55.316Z,10.40
2022-11-26T09:56:25.241Z,10.70
2022-11-26T10:00:50.268Z,10.60
2022-11-26T10:05:15.910Z,11.00
2022-11-26T10:10:14.254Z,11.70
2022-11-26T10:15:00.148Z,11.80
2022-11-26T10:19:43.394Z,12.20
2022-11-26T10:24:34.980Z,12.90
2022-11-26T10:29:38.530Z,15.00
2022-11-26T10:34:13.618Z,16.40
2022-11-26T10:38:35.412Z,17.50
2022-11-26T10:43:05.994Z,17.20
2022-11-26T10:47:29.930Z,15.80
2022-11-26T10:52:01.831Z,16.30
2022-11-26T10:56:43.848Z,18.20
2022-11-26T11:01:07.135Z,17.30
2022-11-26T11:05:29.474Z,16.60
2022-11-26T11:10:05.855Z,15.50
2022-11-26T11:14:30.635Z,14.40
2022-11-26T11:19:05.857Z,13.70
2022-11-26T11:24:00.174Z,14.10
2022-11-26T11:28:21.045Z,14.20
2022-11-26T11:32:42.921Z,13.00
2022-11-26T11:37:18.659Z,13.50
2022-11-26T11:41:47.699Z,15.20
2022-11-26T11:46:44.011Z,15.80
2022-11-26T11:51:23.978Z,15.40
2022-11-26T11:56:02.238Z,13.70
2022-11-26T12:00:46.774Z,12.40
2022-11-26T12:05:33.643Z,11.50
2022-11-26T12:10:02.830Z,10.70
2022-11-26T12:14:45.544Z,10.40
2022-11-26T12:19:39.485Z,10.30
2022-11-26T12:24:07.137Z,10.30
2022-11-26T12:28:35.848Z,10.30
2022-11-26T12:33:43.822Z,10.30
2022-11-26T12:38:34.908Z,10.10
2022-11-26T12:43:17.211Z,9.90
2022-11-26T12:47:46.534Z,9.70
2022-11-26T12:52:24.376Z,9.60
2022-11-26T12:57:30.117Z,9.60
2022-11-26T13:01:51.863Z,9.40
2022-11-26T13:06:48.099Z,9.40
2022-11-26T13:11:19.701Z,9.70
2022-11-26T13:16:12.609Z,9.70
2022-11-26T13:20:48.182Z,9.80
2022-11-26T13:25:40.930Z,9.80
2022-11-26T13:30:24.066Z,9.70
2022-11-26T13:35:16.779Z,9.70
2022-11-26T13:39:59.926Z,9.50
2022-11-26T13:45:05.995Z,9.30
2022-11-26T13:49:51.018Z,9.20
2022-11-26T13:54:22.036Z,9.30
2022-11-26T13:58:51.975Z,9.60
2022-11-26T14:03:49.063Z,9.50
2022-11-26T14:08:36.079Z,9.10
2022-11-26T14:13:03.935Z,8.80
2022-11-26T14:17:32.492Z,8.80
2022-11-26T14:22:01.026Z,8.70
2022-11-26T14:26:38.306Z,8.60
2022-11-26T14:31:22.773Z,8.70
2022-11-26T14:35:55.666Z,8.60
2022-11-26T14:40:28.270Z,8.20
2022-11-26T14:45:19.855Z,7.70
2022-11-26T14:49:57.108Z,7.30
2022-11-26T14:54:29.485Z,6.90
2022-11-26T14:59:03.091Z,6.60
2022-11-26T15:03:26.575Z,6.40
2022-11-26T15:08:02.208Z,6.00
2022-11-26T15:12:24.142Z,5.90
2022-11-26T15:17:00.610Z,5.70
2022-11-26T15:21:26.250Z,5.50
2022-11-26T15:25:52.018Z,5.40
2022-11-26T15:30:30.083Z,5.30
2022-11-26T15:34:53.058Z,5.10
2022-11-26T15:39:32.063Z,5.00
2022-11-26T15:43:58.987Z,4.90
2022-11-26T15:48:50.354Z,4.80
2022-11-26T15:53:24.289Z,4.70
2022-11-26T15:57:50.785Z,4.50
2022-11-26T16:02:20.952Z,4.40
2022-11-26T16:06:42.956Z,4.20
2022-11-26T16:11:04.761Z,4.00
2022-11-26T16:15:30.054Z,3.80
2022-11-26T16:19:56.659Z,3.70
2022-11-26T16:24:31.698Z,3.60
2022-11-26T16:28:54.126Z,3.70
2022-11-26T16:33:16.116Z,3.90
2022-11-26T16:37:45.129Z,3.90
2022-11-26T16:42:21.450Z,4.10
2022-11-26T16:46:45.134Z,4.20
2022-11-26T16:51:07.063Z,4.30
2022-11-26T16:55:29.061Z,4.40
2022-11-26T16:59:58.147Z,4.40
2022-11-26T17:04:20.051Z,4.40
2022-11-26T17:08:47.932Z,4.40
2022-11-26T17:13:11.558Z,4.50
2022-11-26T17:17:33.378Z,4.60
2022-11-26T17:21:55.305Z,4.60
2022-11-26T17:26:23.166Z,4.80
2022-11-26T17:30:45.567Z,4.90
2022-11-26T17:35:07.924Z,4.90
2022-11-26T17:39:29.459Z,4.90
2022-11-26T17:43:51.474Z,4.90
2022-11-26T17:48:14.450Z,5.00
2022-11-26T17:52:36.333Z,5.00
2022-11-26T17:56:58.307Z,5.00
2022-11-26T18:01:21.044Z,4.90
2022-11-26T18:05:43.136Z,4.90
2022-11-26T18:10:12.874Z,4.80
2022-11-26T18:14:40.190Z,4.80
2022-11-26T18:19:02.208Z,4.70
2022-11-26T18:23:24.273Z,4.70
2022-11-26T18:27:46.353Z,4.70
2022-11-26T18:32:08.359Z,4.60
2022-11-26T18:36:30.576Z,4.50
2022-11-26T18:41:04.998Z,4.30
2022-11-26T18:45:27.146Z,4.30
2022-11-26T18:49:48.987Z,4.30
2022-11-26T18:54:10.990Z,4.40
2022-11-26T18:58:33.095Z,4.40
2022-11-26T19:02:55.185Z,4.50
2022-11-26T19:07:17.088Z,4.40
2022-11-26T19:11:39.060Z,4.30
2022-11-26T19:16:01.069Z,4.10
2022-11-26T19:20:22.933Z,3.90
2022-11-26T19:24:44.902Z,3.60
2022-11-26T19:29:09.147Z,3.40
2022-11-26T19:33:32.888Z,3.20
2022-11-26T19:37:55.379Z,3.20
2022-11-26T19:42:17.293Z,3.30
2022-11-26T19:46:41.395Z,3.30
2022-11-26T19:51:05.943Z,3.40
2022-11-26T19:55:28.576Z,3.50
2022-11-26T19:59:51.419Z,3.50
2022-11-26T20:04:17.395Z,3.40
2022-11-26T20:08:39.532Z,3.30
2022-11-26T20:13:01.713Z,3.30
2022-11-26T20:17:23.528Z,3.30
2022-11-26T20:21:46.087Z,3.20
2022-11-26T20:26:28.268Z,3.10
2022-11-26T20:30:50.829Z,3.10
2022-11-26T20:35:12.802Z,3.10
2022-11-26T20:39:35.008Z,3.00
2022-11-26T20:43:59.291Z,3.10
2022-11-26T20:48:21.197Z,3.20
2022-11-26T20:52:43.413Z,3.30
2022-11-26T20:57:06.884Z,3.40
2022-11-26T21:01:31.514Z,3.50
2022-11-26T21:05:54.096Z,3.60
2022-11-26T21:10:16.483Z,3.70
2022-11-26T21:14:38.225Z,3.90
2022-11-26T21:19:00.924Z,4.00
2022-11-26T21:23:23.046Z,4.10
2022-11-26T21:27:45.037Z,4.20
2022-11-26T21:32:07.093Z,4.30
2022-11-26T21:36:31.963Z,4.30
2022-11-26T21:40:54.160Z,4.30
2022-11-26T21:45:16.100Z,4.40
2022-11-26T21:49:38.135Z,4.40
2022-11-26T21:53:59.938Z,4.40
2022-11-26T21:58:21.899Z,4.50
2022-11-26T22:02:43.889Z,4.50
2022-11-26T22:07:06.865Z,4.50
2022-11-26T22:11:35.791Z,4.50
2022-11-26T22:15:58.090Z,4.50
2022-11-26T22:20:20.453Z,4.50
2022-11-26T22:24:42.363Z,4.40
2022-11-26T22:29:04.986Z,4.40
2022-11-26T22:33:27.408Z,4.30
2022-11-26T22:37:49.563Z,4.20
2022-11-26T22:42:11.434Z,4.00
2022-11-26T22:46:34.404Z,3.80
2022-11-26T22:50:56.510Z,3.50
2022-11-26T22:55:18.610Z,3.30
2022-11-26T22:59:41.035Z,3.00
2022-11-26T23:04:07.246Z,2.90
2022-11-26T23:08:31.209Z,2.60
2022-11-26T23:12:56.981Z,2.40
2022-11-26T23:17:19.027Z,2.30
2022-11-26T23:21:42.954Z,2.20
2022-11-26T23:26:06.896Z,2.10
2022-11-26T23:30:29.251Z,2.10
2022-11-26T23:34:51.184Z,2.00
2022-11-26T23:39:14.161Z,2.20
2022-11-26T23:43:38.515Z,2.30
2022-11-26T23:48:00.482Z,2.20
2022-11-26T23:52:22.582Z,2.20
2022-11-26T23:56:44.736Z,2.10
